| time (UTC) | temp F | wind direction | speed MPH | gust MPH | rain 1hr in | rain 24hr in | rain mn in | humidity % | barometer mb |
| 20260906135901 | 66 | 45 | 3.0 | 6.0 | 0.00 | 0.00 | 0.00 | 88 | 1021.3 |
| 20260906134401 | 65 | 55 | 6.0 | 7.0 | 0.00 | 0.00 | 0.00 | 90 | 1021.7 |
| 20260906131402 | 63 | 74 | 3.0 | 5.0 | 0.00 | 0.00 | 0.00 | 92 | 1022.0 |
| 20260906125902 | 63 | 77 | 4.0 | 4.0 | 0.00 | 0.00 | 0.00 | 92 | 1021.7 |
| 20260906124902 | 63 | 143 | 0.0 | 0.0 | 0.00 | 0.00 | 0.00 | 95 | 1021.7 |
| 20260906123402 | 61 | 7 | 0.0 | 0.0 | 0.00 | 0.00 | 0.00 | 97 | 1021.7 |
| 20260906121902 | 59 | 103 | 0.0 | 0.0 | 0.00 | 0.00 | 0.00 | 100 | 1021.3 |
| 20260906120401 | 59 | 260 | 0.0 | 0.0 | 0.00 | 0.00 | 0.00 | 100 | 1021.3 |
| 20260906114901 | 58 | 68 | 0.0 | 0.0 | 0.00 | 0.00 | 0.00 | 100 | 1021.0 |
| 20260906113402 | 58 | 81 | 0.0 | 0.0 | 0.00 | 0.00 | 0.00 | 100 | 1020.7 |
| 20260906111902 | 58 | 63 | 0.0 | 0.0 | 0.00 | 0.00 | 0.00 | 100 | 1021.0 |
| 20260906110402 | 58 | 83 | 0.0 | 0.0 | 0.00 | 0.00 | 0.00 | 100 | 1020.7 |
| 20260906100401 | 60 | 17 | 3.0 | 3.0 | 0.00 | 0.00 | 0.00 | 100 | 1020.3 |
| 20260906094902 | 60 | 51 | 4.0 | 4.0 | 0.00 | 0.00 | 0.00 | 100 | 1020.3 |
| 20260906090402 | 60 | 20 | 0.0 | 0.0 | 0.00 | 0.00 | 0.00 | 100 | 1020.3 |
| 20260906084901 | 60 | 131 | 0.0 | 0.0 | 0.00 | 0.00 | 0.00 | 100 | 1020.7 |
| 20260906081901 | 61 | 54 | 0.0 | 0.0 | 0.00 | 0.00 | 0.00 | 100 | 1020.3 |
| 20260906080402 | 61 | 120 | 0.0 | 0.0 | 0.00 | 0.00 | 0.00 | 100 | 1020.3 |
| 20260906073401 | 62 | 27 | 0.0 | 0.0 | 0.00 | 0.00 | 0.00 | 100 | 1020.3 |
| 20260906071901 | 62 | 25 | 0.0 | 0.0 | 0.00 | 0.00 | 0.00 | 100 | 1020.3 |
| 20260906070401 | 62 | 25 | 0.0 | 0.0 | 0.00 | 0.00 | 0.00 | 100 | 1020.3 |
| 20260906063402 | 62 | 36 | 0.0 | 0.0 | 0.00 | 0.00 | 0.00 | 100 | 1020.7 |
| 20260906061902 | 62 | 72 | 0.0 | 0.0 | 0.00 | 0.00 | 0.00 | 100 | 1020.7 |
| 20260906050402 | 62 | 108 | 0.0 | 0.0 | 0.00 | 0.00 | 0.00 | 100 | 1020.0 |
| 20260906045902 | 62 | 167 | 0.0 | 0.0 | 0.00 | 0.00 | 0.00 | 100 | 1020.0 |
| 20260906043402 | 62 | 99 | 0.0 | 0.0 | 0.00 | 0.00 | 0.00 | 100 | 1020.0 |
| 20260906041902 | 62 | 107 | 0.0 | 0.0 | 0.00 | 0.00 | 0.00 | 100 | 1019.6 |
| 20260906035402 | 63 | 295 | 0.0 | 0.0 | 0.00 | 0.00 | 0.00 | 100 | 1019.3 |
| 20260906032402 | 64 | 90 | 0.0 | 0.0 | 0.00 | 0.00 | 0.00 | 99 | 1019.0 |
| 20260906030902 | 64 | 49 | 0.0 | 0.0 | 0.00 | 0.00 | 0.00 | 99 | 1018.6 |
| 20260906025402 | 64 | 52 | 0.0 | 3.0 | 0.00 | 0.00 | 0.00 | 99 | 1019.0 |
| 20260906015402 | 66 | 43 | 3.0 | 3.0 | 0.00 | 0.00 | 0.00 | 98 | 1018.3 |
| 20260906013902 | 66 | 55 | 2.0 | 3.0 | 0.00 | 0.00 | 0.00 | 97 | 1018.3 |
| 20260906012402 | 67 | 70 | 0.0 | 0.0 | 0.00 | 0.00 | 0.00 | 95 | 1018.3 |
| 20260906011402 | 67 | 70 | 0.0 | 0.0 | 0.00 | 0.00 | 0.00 | 94 | 1018.3 |
| 20260906003402 | 70 | 99 | 0.0 | 0.0 | 0.00 | 0.00 | 0.00 | 89 | 1017.9 |
| 20260906001902 | 71 | 99 | 0.0 | 0.0 | 0.00 | 0.00 | 0.00 | 87 | 1017.9 |
| 20260905234902 | 72 | 141 | 0.0 | 2.0 | 0.00 | 0.00 | 0.00 | 85 | 1018.3 |
| 20260905233902 | 73 | 192 | 0.0 | 5.0 | 0.00 | 0.00 | 0.00 | 84 | 1018.3 |
| 20260905232402 | 74 | 90 | 2.0 | 4.0 | 0.00 | 0.00 | 0.00 | 82 | 1018.3 |
| 20260905225902 | 74 | 74 | 1.0 | 8.0 | 0.00 | 0.00 | 0.00 | 81 | 1017.9 |
| 20260905224402 | 74 | 87 | 4.0 | 7.0 | 0.00 | 0.00 | 0.00 | 80 | 1018.3 |
| 20260905222902 | 76 | 106 | 6.0 | 7.0 | 0.00 | 0.00 | 0.00 | 79 | 1018.3 |
| 20260905214902 | 76 | 141 | 2.0 | 5.0 | 0.00 | 0.00 | 0.00 | 77 | 1018.3 |
| 20260905213401 | 76 | 91 | 4.0 | 6.0 | 0.00 | 0.00 | 0.00 | 77 | 1018.3 |
| 20260905210902 | 76 | 154 | 4.0 | 8.0 | 0.00 | 0.00 | 0.00 | 79 | 1018.3 |
| 20260905195901 | 75 | 6 | 3.0 | 8.0 | 0.00 | 0.00 | 0.00 | 82 | 1018.6 |
| 20260905194401 | 75 | 147 | 6.0 | 8.0 | 0.00 | 0.00 | 0.00 | 80 | 1018.6 |
| 20260905192902 | 74 | 66 | 4.0 | 8.0 | 0.00 | 0.00 | 0.00 | 84 | 1018.6 |
| 20260905191402 | 73 | 120 | 3.0 | 7.0 | 0.00 | 0.00 | 0.00 | 83 | 1018.6 |
| 20260905183402 | 73 | 78 | 5.0 | 5.0 | 0.00 | 0.00 | 0.00 | 87 | 1018.6 |
| 20260905181902 | 73 | 123 | 4.0 | 7.0 | 0.00 | 0.00 | 0.00 | 87 | 1018.6 |
| 20260905174901 | 73 | 210 | 2.0 | 4.0 | 0.00 | 0.00 | 0.00 | 87 | 1019.0 |
| 20260905173401 | 73 | 85 | 4.0 | 6.0 | 0.00 | 0.00 | 0.00 | 86 | 1019.0 |
| 20260905171901 | 72 | 90 | 7.0 | 7.0 | 0.00 | 0.00 | 0.00 | 87 | 1019.0 |
| 20260905170401 | 72 | 85 | 4.0 | 5.0 | 0.00 | 0.00 | 0.00 | 88 | 1019.0 |
| 20260905161902 | 70 | 84 | 4.0 | 7.0 | 0.00 | 0.00 | 0.00 | 92 | 1019.0 |
| 20260905160402 | 70 | 54 | 5.0 | 7.0 | 0.00 | 0.00 | 0.00 | 92 | 1019.0 |
| 20260905155402 | 70 | 107 | 4.0 | 6.0 | 0.00 | 0.00 | 0.00 | 93 | 1019.0 |
| 20260905153902 | 69 | 72 | 3.0 | 7.0 | 0.00 | 0.00 | 0.00 | 96 | 1019.0 |
| 20260905151402 | 68 | 74 | 6.0 | 7.0 | 0.00 | 0.00 | 0.00 | 96 | 1018.6 |
| 20260905144402 | 68 | 61 | 3.0 | 6.0 | 0.00 | 0.00 | 0.00 | 97 | 1018.3 |
| 20260905143402 | 67 | 73 | 4.0 | 9.0 | 0.00 | 0.00 | 0.00 | 98 | 1018.3 |
| 20260905141902 | 67 | 107 | 4.0 | 7.0 | 0.00 | 0.00 | 0.00 | 100 | 1018.3 |